Friday, January 18, 2019, 11:22 PM EST
Back to Local

KFOK, The Gabreski Airport

Location: East Quogue, NY, United States Lat: 40.85
Local Time: 11:22 PM EST ( 4:22 GMT) Lon: -72.617
Time Zone: US/Eastern Elev: 65 ft

Show me the last for .
Show Decoded

2019-01-18 23:13 METAR KFOK 190413Z AUTO 00000KT 2 1/2SM BR SCT055 M03/M04 A3017 RMK AO2
                 T10281039 =
2019-01-18 23:07 METAR KFOK 190407Z AUTO 00000KT 3/4SM BR FEW055 M03/M04 A3017 RMK AO2 T10331039
                 =
2019-01-18 22:53 METAR KFOK 190353Z 00000KT 1 3/4SM BR CLR M03/M04 A3017 RMK AO2 SLP216 T10281039
                 =
2019-01-18 21:53 METAR KFOK 190253Z 00000KT 6SM BR FEW024 00/M02 A3014 RMK AO2 SLP205 T00001017
                 53013 =
2019-01-18 21:44 METAR KFOK 190244Z 28003KT 7SM SCT022 01/M02 A3013 RMK AO2 T00061017 =
2019-01-18 21:13 METAR KFOK 190213Z 27005KT 7SM BKN022 01/M02 A3013 RMK AO2 T00061017 =
2019-01-18 20:53 METAR KFOK 190153Z 29004KT 8SM SCT024 01/M02 A3012 RMK AO2 SLP200 T00061022 =
2019-01-18 20:25 METAR KFOK 190125Z 29005KT 10SM SCT021 BKN055 01/M01 A3010 RMK AO2 T00111011 =
2019-01-18 19:53 METAR KFOK 190053Z 30006KT 10SM OVC022 02/M01 A3010 RMK AO2 SLP193 T00221006 =
2019-01-18 19:04 METAR KFOK 190004Z 29003KT 10SM FEW018 BKN024 OVC029 02/M01 A3009 RMK AO2
                 T00221006 =
2019-01-18 18:53 METAR KFOK 182353Z 30004KT 10SM OVC030 02/M01 A3010 RMK AO2 SLP193 T00171011
                 10056 20017 51020 =
2019-01-18 18:44 METAR KFOK 182344Z 32004KT 10SM OVC030 02/M01 A3009 RMK AO2 T00171011 =
2019-01-18 17:53 METAR KFOK 182253Z 00000KT 10SM BKN028 OVC032 02/M01 A3007 RMK AO2 SLP184
                 T00221006 =
2019-01-18 16:53 METAR KFOK 182153Z 00000KT 10SM CLR 04/01 A3008 RMK AO2 SLP186 T00390011 =
2019-01-18 15:53 METAR KFOK 182053Z 23005KT 10SM CLR 04/01 A3004 RMK AO2 SLP173 T00390011 58007 $
                 =
2019-01-18 15:19 METAR KFOK 182019Z COR 23005KT 10SM SCT020 04/01 A3004 =
2019-01-18 14:53 METAR KFOK 181953Z 00000KT 10SM SCT012 OVC024 04/01 A3005 RMK AO2 SLP176
                 T00440011 =
2019-01-18 14:26 METAR KFOK 181926Z 32005KT 10SM SCT013 OVC022 04/01 A3006 RMK AO2 T00390006 =
2019-01-18 13:53 METAR KFOK 181853Z 33004KT 10SM OVC013 04/01 A3006 RMK AO2 SLP178 T00390006 =
2019-01-18 13:38 METAR KFOK 181838Z 32004KT 10SM OVC013 04/01 A3006 RMK AO2 T00390006 =
2019-01-18 13:13 METAR KFOK 181813Z 00000KT 10SM SCT016 BKN020 OVC033 04/01 A3006 RMK AO2
                 T00390011 =
2019-01-18 12:53 METAR KFOK 181753Z 00000KT 10SM FEW019 SCT024 OVC035 04/01 A3006 RMK AO2 SLP180
                 60000 T00390011 10039 21011 58023 =
2019-01-18 12:35 METAR KFOK 181735Z 02003KT 10SM SCT009 BKN019 OVC024 04/01 A3007 RMK AO2
                 T00390011 =
2019-01-18 12:16 METAR KFOK 181716Z 33005KT 10SM OVC009 04/01 A3008 RMK AO2 T00390011 =
2019-01-18 12:03 METAR KFOK 181703Z 33005KT 10SM BKN010 OVC019 03/01 A3009 RMK AO2 T00330006 =
2019-01-18 11:53 METAR KFOK 181653Z 36004KT 10SM SCT010 OVC019 04/01 A3009 RMK AO2 SLP190
                 T00390011 =
2019-01-18 11:30 METAR KFOK 181630Z 05006KT 10SM FEW013 OVC021 03/01 A3010 RMK AO2 T00330006 =
2019-01-18 11:12 METAR KFOK 181612Z 05007KT 10SM BKN011 BKN021 OVC120 03/01 A3011 RMK AO2
                 T00330006 =
2019-01-18 10:53 METAR KFOK 181553Z 05007KT 10SM BKN009 OVC020 03/01 A3011 RMK AO2 SLP198
                 T00280006 =
2019-01-18 10:33 METAR KFOK 181533Z 04006KT 10SM OVC009 02/00 A3012 RMK AO2 T00220000 =
2019-01-18 09:53 METAR KFOK 181453Z 02006KT 10SM OVC012 02/M01 A3013 RMK AO2 SLP203 60000
                 T00171006 53002 =
2019-01-18 09:31 METAR KFOK 181431Z 03005KT 10SM OVC014 02/M01 A3013 RMK AO2 T00171006 $ =
2019-01-18 08:53 METAR KFOK 181353Z 04006KT 10SM BKN016 OVC095 01/M01 A3011 RMK AO2 SLP197
                 T00061011 $ =
2019-01-18 07:53 METAR KFOK 181253Z 02004KT 8SM SCT034 BKN050 00/M02 A3012 RMK AO2 SNB12E35
                 SLP200 P0000 T00001017 $ =
2019-01-18 06:53 METAR KFOK 181153Z 02003KT 10SM SCT032 OVC060 M01/M02 A3012 RMK AO2 SNE39 SLP201
                 P0000 60003 70003 T10061022 10000 21022 56005 $ =
2019-01-18 06:34 METAR KFOK 181134Z AUTO 04005KT 6SM -SN BR BKN032 OVC110 M01/M03 A3012 RMK AO2
                 P0000 T10061028 $ =
2019-01-18 05:53 METAR KFOK 181053Z AUTO 04005KT 4SM -SN BR BKN029 OVC037 M01/M03 A3013 RMK AO2
                 SLP202 P0000 T10061028 $ =
2019-01-18 05:48 METAR KFOK 181048Z AUTO 04004KT 4SM -SN BR BKN029 OVC036 M01/M03 A3013 RMK AO2
                 P0000 $ =
2019-01-18 05:27 METAR KFOK 181027Z AUTO 04004KT 3SM -SN BR OVC031 M01/M03 A3013 RMK AO2 P0000
                 T10061028 $ =
2019-01-18 05:10 METAR KFOK 181010Z AUTO 04005KT 5SM -SN BR OVC029 M01/M03 A3013 RMK AO2 P0000
                 T10061028 $ =
2019-01-18 04:53 METAR KFOK 180953Z AUTO 05005KT 5SM -SN BR OVC030 M01/M03 A3014 RMK AO2 SLP206
                 P0001 T10111028 $ =
2019-01-18 04:29 METAR KFOK 180929Z AUTO 04005KT 6SM -SN BR BKN030 BKN041 OVC048 M01/M03 A3015
                 RMK AO2 P0001 T10111033 $ =
2019-01-18 04:22 METAR KFOK 180922Z AUTO 04005KT 5SM -SN BR BKN029 BKN038 OVC055 M01/M03 A3015
                 RMK AO2 P0001 T10111033 $ =
2019-01-18 03:53 METAR KFOK 180853Z AUTO 04004KT 3SM -SN BR BKN034 OVC043 M01/M03 A3017 RMK AO2
                 SLP216 P0000 60002 T10111028 58019 $ =
2019-01-18 03:20 METAR KFOK 180820Z AUTO 03004KT 4SM -SN BR FEW012 OVC042 M01/M03 A3018 RMK AO2
                 P0000 T10111028 $ =
2019-01-18 02:53 METAR KFOK 180753Z AUTO 04003KT 2SM -SN BR FEW010 OVC032 M01/M03 A3020 RMK AO2
                 SLP225 P0002 T10061028 $ =
2019-01-18 02:45 METAR KFOK 180745Z AUTO 03004KT 2SM -SN BR FEW010 OVC032 M01/M03 A3020 RMK AO2
                 P0001 T10061028 $ =
2019-01-18 02:25 METAR KFOK 180725Z AUTO 06003KT 3SM -SN FEW011 SCT017 OVC035 00/M03 A3021 RMK
                 AO2 P0001 T00001028 $ =
2019-01-18 02:05 METAR KFOK 180705Z AUTO 07003KT 3SM -SN SCT014 BKN029 OVC035 00/M03 A3021 RMK
                 AO2 P0001 T00001028 $ =
2019-01-18 01:53 METAR KFOK 180653Z AUTO 00000KT 2SM -SN BKN024 OVC029 M01/M03 A3022 RMK AO2
                 SLP233 P0000 T10061033 $ =
2019-01-18 01:35 METAR KFOK 180635Z AUTO 00000KT 1 3/4SM -SN OVC024 M02/M06 A3022 RMK AO2 P0000
                 T10221061 $ =
2019-01-18 01:25 METAR KFOK 180625Z AUTO 00000KT 2SM -SN OVC024 M02/M06 A3022 RMK AO2 P0000
                 T10221061 $ =
2019-01-18 01:01 METAR KFOK 180601Z AUTO 05003KT 4SM -SN OVC028 M02/M07 A3022 RMK AO2 P0000
                 T10171067 $ =
2019-01-18 00:53 METAR KFOK 180553Z AUTO 00000KT 5SM -SN OVC030 M01/M07 A3022 RMK AO2 SNB35
                 SLP235 P0000 60000 T10111067 11011 21056 58028 $ =
2019-01-17 23:53 METAR KFOK 180453Z AUTO 04003KT 10SM BKN035 OVC042 M02/M08 A3026 RMK AO2 SLP246
                 T10171083 400001056 $ =

Support USWX by starting your Amazon purchase here.